createdAt,value
2022-08-12T00:00:34.173Z,38
2022-08-12T00:03:34.224Z,38
2022-08-12T00:06:34.165Z,38
2022-08-12T00:09:34.169Z,38
2022-08-12T00:12:34.161Z,38
2022-08-12T00:15:34.180Z,38
2022-08-12T00:18:34.174Z,38
2022-08-12T00:21:35.961Z,38
2022-08-12T00:24:34.175Z,38
2022-08-12T00:27:43.782Z,38
2022-08-12T00:30:34.178Z,38
2022-08-12T00:33:38.785Z,38
2022-08-12T00:36:35.465Z,38
2022-08-12T00:39:34.222Z,38.5
2022-08-12T00:42:34.188Z,38.5
2022-08-12T00:45:34.174Z,39
2022-08-12T00:48:34.168Z,39
2022-08-12T00:51:34.182Z,39
2022-08-12T00:54:34.182Z,39
2022-08-12T00:57:34.165Z,39
2022-08-12T01:00:34.175Z,39
2022-08-12T01:03:34.168Z,39
2022-08-12T01:06:34.178Z,39
2022-08-12T01:09:34.172Z,39
2022-08-12T01:12:34.171Z,39
2022-08-12T01:15:34.169Z,39
2022-08-12T01:18:34.177Z,39
2022-08-12T01:21:34.170Z,39
2022-08-12T01:24:34.177Z,39
2022-08-12T01:27:34.171Z,39
2022-08-12T01:30:34.188Z,39
2022-08-12T01:33:34.170Z,39
2022-08-12T01:36:34.164Z,39
2022-08-12T01:39:34.198Z,39
2022-08-12T01:42:34.185Z,39.5
2022-08-12T01:45:40.494Z,39.5
2022-08-12T01:48:34.190Z,39.5
2022-08-12T01:52:14.670Z,39.5
2022-08-12T01:54:34.180Z,39.5
2022-08-12T01:57:57.319Z,40
2022-08-12T02:00:36.139Z,40
2022-08-12T02:03:34.190Z,40
2022-08-12T02:06:34.180Z,40
2022-08-12T02:09:34.191Z,40
2022-08-12T02:12:34.189Z,40
2022-08-12T02:15:34.176Z,40
2022-08-12T02:18:34.188Z,40
2022-08-12T02:21:34.184Z,40
2022-08-12T02:24:34.184Z,40
2022-08-12T02:27:34.182Z,40
2022-08-12T02:30:41.199Z,40
2022-08-12T02:33:34.193Z,40
2022-08-12T02:36:34.182Z,40
2022-08-12T02:39:34.274Z,40
2022-08-12T02:42:34.185Z,40
2022-08-12T02:45:34.184Z,40
2022-08-12T02:48:34.203Z,40
2022-08-12T02:51:34.189Z,40
2022-08-12T02:54:34.191Z,40
2022-08-12T02:57:34.190Z,40
2022-08-12T03:00:34.193Z,40.5
2022-08-12T03:03:34.195Z,40.5
2022-08-12T03:06:34.184Z,40.5
2022-08-12T03:09:38.209Z,40.5
2022-08-12T03:12:34.441Z,40.5
2022-08-12T03:15:34.186Z,40.5
2022-08-12T03:18:34.201Z,40.5
2022-08-12T03:21:52.392Z,40.5
2022-08-12T03:24:34.187Z,40.5
2022-08-12T03:27:34.193Z,41
2022-08-12T03:30:34.192Z,41
2022-08-12T03:33:34.193Z,41
2022-08-12T03:36:34.193Z,41
2022-08-12T03:39:35.745Z,41
2022-08-12T03:42:34.509Z,41
2022-08-12T03:45:34.198Z,41
2022-08-12T03:48:34.192Z,41.5
2022-08-12T03:51:34.190Z,41.5
2022-08-12T03:54:34.200Z,41.5
2022-08-12T03:57:34.190Z,41.5
2022-08-12T04:00:34.228Z,41.5
2022-08-12T04:03:34.200Z,41.5
2022-08-12T04:06:35.653Z,41
2022-08-12T04:09:34.196Z,41
2022-08-12T04:12:34.247Z,41
2022-08-12T04:15:34.197Z,41
2022-08-12T04:18:34.195Z,41.5
2022-08-12T04:21:34.200Z,41.5
2022-08-12T04:24:34.199Z,41.5
2022-08-12T04:27:34.197Z,41.5
2022-08-12T04:30:34.202Z,41.5
2022-08-12T04:33:34.199Z,41.5
2022-08-12T04:36:34.189Z,41.5
2022-08-12T04:39:34.250Z,41.5
2022-08-12T04:42:34.206Z,41.5
2022-08-12T04:45:34.189Z,41.5
2022-08-12T04:48:34.196Z,41.5
2022-08-12T04:51:34.184Z,41.5
2022-08-12T04:54:34.191Z,42
2022-08-12T04:57:34.205Z,42
2022-08-12T05:00:34.235Z,42
2022-08-12T05:03:46.431Z,42
2022-08-12T05:06:34.187Z,42
2022-08-12T05:09:55.281Z,42.5
2022-08-12T05:12:34.303Z,42.5
2022-08-12T05:15:34.203Z,42.5
2022-08-12T05:18:35.060Z,42.5
2022-08-12T05:21:34.200Z,42.5
2022-08-12T05:24:34.216Z,42.5
2022-08-12T05:27:34.213Z,42.5
2022-08-12T05:30:34.190Z,42.5
2022-08-12T05:33:34.203Z,42.5
2022-08-12T05:36:34.188Z,42.5
2022-08-12T05:39:34.212Z,42.5
2022-08-12T05:42:34.379Z,42.5
2022-08-12T05:45:34.199Z,42.5
2022-08-12T05:48:34.204Z,42.5
2022-08-12T05:51:40.028Z,42.5
2022-08-12T05:54:54.568Z,42.5
2022-08-12T05:57:34.220Z,42.5
2022-08-12T06:00:34.197Z,42.5
2022-08-12T06:03:34.250Z,42.5
2022-08-12T06:06:37.719Z,42.5
2022-08-12T06:09:34.211Z,42.5
2022-08-12T06:12:34.226Z,42.5
2022-08-12T06:15:34.216Z,42.5
2022-08-12T06:18:34.238Z,42.5
2022-08-12T06:21:34.222Z,42.5
2022-08-12T06:24:34.225Z,42.5
2022-08-12T06:27:34.234Z,42.5
2022-08-12T06:30:37.758Z,42.5
2022-08-12T06:33:56.205Z,42.5
2022-08-12T06:36:34.226Z,42.5
2022-08-12T06:39:34.294Z,42.5
2022-08-12T06:42:34.252Z,42.5
2022-08-12T06:45:45.901Z,42.5
2022-08-12T06:48:34.229Z,42.5
2022-08-12T06:51:34.262Z,42.5
2022-08-12T06:54:34.260Z,42.5
2022-08-12T06:57:56.888Z,42.5
2022-08-12T07:00:34.329Z,42.5
2022-08-12T07:03:34.272Z,42.5
2022-08-12T07:06:34.266Z,42.5
2022-08-12T07:09:56.287Z,42.5
2022-08-12T07:12:34.267Z,42.5
2022-08-12T07:15:34.272Z,42.5
2022-08-12T07:18:34.279Z,42.5
2022-08-12T07:21:59.532Z,42
2022-08-12T07:24:34.270Z,42
2022-08-12T07:27:34.270Z,42
2022-08-12T07:30:34.268Z,42
2022-08-12T07:33:34.281Z,41.5
2022-08-12T07:36:34.265Z,41.5
2022-08-12T07:39:34.318Z,41.5
2022-08-12T07:42:34.304Z,41.5
2022-08-12T07:45:34.263Z,41.5
2022-08-12T07:48:34.274Z,41.5
2022-08-12T07:51:34.278Z,41.5
2022-08-12T07:54:34.274Z,41
2022-08-12T07:57:34.274Z,41
2022-08-12T08:00:34.268Z,41
2022-08-12T08:03:34.269Z,41
2022-08-12T08:06:34.270Z,41
2022-08-12T08:09:34.279Z,40.5
2022-08-12T08:12:34.274Z,40.5
2022-08-12T08:16:00.997Z,40
2022-08-12T08:18:34.272Z,39.5
2022-08-12T08:21:34.270Z,39
2022-08-12T08:24:34.275Z,39
2022-08-12T08:27:34.276Z,39
2022-08-12T08:30:34.276Z,39
2022-08-12T08:34:04.648Z,39
2022-08-12T08:36:34.265Z,38.5
2022-08-12T08:39:34.308Z,38
2022-08-12T08:42:34.281Z,38
2022-08-12T08:45:34.268Z,38
2022-08-12T08:48:34.264Z,38
2022-08-12T08:51:34.265Z,38
2022-08-12T08:54:34.284Z,37.5
2022-08-12T08:57:43.278Z,37.5
2022-08-12T09:00:34.271Z,37
2022-08-12T09:04:21.913Z,36
2022-08-12T09:06:37.005Z,36
2022-08-12T09:10:01.879Z,35
2022-08-12T09:12:36.127Z,35
2022-08-12T09:18:34.282Z,35
2022-08-12T09:21:54.412Z,35
2022-08-12T09:24:34.287Z,33.5
2022-08-12T09:27:58.118Z,33.5
2022-08-12T09:30:41.585Z,33.5
2022-08-12T09:34:27.254Z,33.5
2022-08-12T09:36:48.895Z,33
2022-08-12T09:40:02.943Z,33
2022-08-12T09:42:43.261Z,32.5
2022-08-12T09:46:05.900Z,32.5
2022-08-12T09:48:34.783Z,32
2022-08-12T09:51:37.256Z,32
2022-08-12T09:54:35.365Z,32.5
2022-08-12T09:58:08.575Z,32
2022-08-12T10:00:40.187Z,32
2022-08-12T10:03:34.329Z,32
2022-08-12T10:06:36.001Z,31.5
2022-08-12T10:09:56.993Z,32
2022-08-12T10:12:34.293Z,32
2022-08-12T10:16:01.347Z,32
2022-08-12T10:18:35.535Z,32
2022-08-12T10:21:35.378Z,32
2022-08-12T10:24:34.286Z,32
2022-08-12T10:27:39.584Z,32
2022-08-12T10:30:39.117Z,31.5
2022-08-12T10:33:34.287Z,32
2022-08-12T10:36:36.459Z,32
2022-08-12T10:39:44.349Z,32
2022-08-12T10:42:34.298Z,32
2022-08-12T10:45:35.713Z,32
2022-08-12T10:48:34.550Z,32
2022-08-12T10:51:52.170Z,32
2022-08-12T10:54:34.289Z,32
2022-08-12T10:58:13.980Z,32
2022-08-12T11:00:45.471Z,32
2022-08-12T11:04:21.256Z,32
2022-08-12T11:07:04.576Z,32
2022-08-12T11:09:42.168Z,32
2022-08-12T11:12:36.481Z,31.5
2022-08-12T11:16:03.153Z,31
2022-08-12T11:18:34.306Z,31
2022-08-12T11:21:57.368Z,31
2022-08-12T11:24:34.341Z,31
2022-08-12T11:27:34.322Z,31
2022-08-12T11:30:34.325Z,31
2022-08-12T11:34:04.044Z,31
2022-08-12T11:36:36.282Z,30.5
2022-08-12T11:42:34.284Z,30.5
2022-08-12T11:45:38.881Z,30.5
2022-08-12T11:48:51.012Z,30.5
2022-08-12T11:51:36.408Z,30.5
2022-08-12T11:54:34.288Z,31
2022-08-12T11:58:14.553Z,31
2022-08-12T12:03:40.300Z,31
2022-08-12T12:06:34.316Z,30.5
2022-08-12T12:09:52.166Z,30.5
2022-08-12T12:12:34.311Z,30.5
2022-08-12T12:15:37.414Z,30.5
2022-08-12T12:18:34.310Z,30.5
2022-08-12T12:21:47.686Z,30
2022-08-12T12:24:34.318Z,30
2022-08-12T12:27:58.486Z,30
2022-08-12T12:30:34.323Z,29.5
2022-08-12T12:33:46.363Z,30
2022-08-12T12:36:34.309Z,30
2022-08-12T12:39:54.604Z,30
2022-08-12T12:42:42.239Z,29.5
2022-08-12T12:45:34.323Z,29
2022-08-12T12:48:34.318Z,29
2022-08-12T12:51:49.622Z,29
2022-08-12T12:54:34.318Z,29.5
2022-08-12T12:57:36.514Z,29.5
2022-08-12T13:00:34.332Z,29
2022-08-12T13:03:35.361Z,29.5
2022-08-12T13:06:34.384Z,29.5
2022-08-12T13:09:35.993Z,29.5
2022-08-12T13:12:34.350Z,29.5
2022-08-12T13:15:43.653Z,29.5
2022-08-12T13:18:34.334Z,29.5
2022-08-12T13:21:36.592Z,29.5
2022-08-12T13:24:34.331Z,29.5
2022-08-12T13:27:34.756Z,29.5
2022-08-12T13:30:34.331Z,29.5
2022-08-12T13:34:29.701Z,29.5
2022-08-12T13:36:34.325Z,29.5
2022-08-12T13:39:34.380Z,29.5
2022-08-12T13:42:34.326Z,30
2022-08-12T13:45:34.347Z,30
2022-08-12T13:48:34.328Z,30
2022-08-12T13:51:40.080Z,30
2022-08-12T13:54:34.338Z,30
2022-08-12T13:57:34.334Z,30
2022-08-12T14:00:38.474Z,30
2022-08-12T14:03:50.768Z,30
2022-08-12T14:06:34.344Z,30
2022-08-12T14:09:34.336Z,30.5
2022-08-12T14:12:34.356Z,30.5
2022-08-12T14:15:35.155Z,30.5
2022-08-12T14:18:34.339Z,30.5
2022-08-12T14:21:58.992Z,30.5
2022-08-12T14:24:34.339Z,30.5
2022-08-12T14:27:55.443Z,30.5
2022-08-12T14:30:34.346Z,30
2022-08-12T14:33:43.303Z,30.5
2022-08-12T14:36:34.377Z,30.5
2022-08-12T14:39:34.399Z,30.5
2022-08-12T14:42:34.356Z,30.5
2022-08-12T14:45:37.408Z,30.5
2022-08-12T14:48:34.350Z,30.5
2022-08-12T14:52:54.707Z,30.5
2022-08-12T14:57:35.642Z,30
2022-08-12T15:00:34.360Z,30
2022-08-12T15:03:36.722Z,30
2022-08-12T15:06:38.740Z,29.5
2022-08-12T15:09:34.357Z,30
2022-08-12T15:12:34.366Z,30
2022-08-12T15:15:34.362Z,30
2022-08-12T15:18:34.362Z,29.5
2022-08-12T15:22:36.247Z,30
2022-08-12T15:24:34.355Z,30
2022-08-12T15:28:11.209Z,30
2022-08-12T15:30:34.359Z,29.5
2022-08-12T15:33:44.865Z,30
2022-08-12T15:36:54.511Z,29.5
2022-08-12T15:39:34.599Z,29.5
2022-08-12T15:42:34.365Z,29.5
2022-08-12T15:45:34.357Z,29.5
2022-08-12T15:48:34.376Z,29.5
2022-08-12T15:51:35.638Z,29.5
2022-08-12T15:54:36.696Z,29.5
2022-08-12T15:57:34.411Z,29.5
2022-08-12T16:00:34.474Z,29.5
2022-08-12T16:03:40.087Z,29.5
2022-08-12T16:07:03.636Z,29.5
2022-08-12T16:09:56.861Z,29
2022-08-12T16:12:34.388Z,29
2022-08-12T16:15:35.307Z,29
2022-08-12T16:18:34.386Z,29
2022-08-12T16:21:50.832Z,29
2022-08-12T16:24:38.682Z,29
2022-08-12T16:27:36.878Z,29
2022-08-12T16:30:34.384Z,29
2022-08-12T16:33:35.619Z,29
2022-08-12T16:36:34.387Z,29.5
2022-08-12T16:39:35.365Z,29
2022-08-12T16:42:34.413Z,29.5
2022-08-12T16:46:04.743Z,29.5
2022-08-12T16:48:35.605Z,29.5
2022-08-12T16:51:37.627Z,29.5
2022-08-12T16:54:36.226Z,29.5
2022-08-12T16:57:35.239Z,29.5
2022-08-12T17:00:34.382Z,29.5
2022-08-12T17:03:35.203Z,29.5
2022-08-12T17:06:34.420Z,29.5
2022-08-12T17:09:39.850Z,29.5
2022-08-12T17:12:37.453Z,29.5
2022-08-12T17:15:51.450Z,30
2022-08-12T17:18:42.250Z,30
2022-08-12T17:21:40.467Z,30
2022-08-12T17:24:34.387Z,30
2022-08-12T17:27:34.401Z,30
2022-08-12T17:30:34.398Z,30.5
2022-08-12T17:33:35.871Z,29.5
2022-08-12T17:36:34.412Z,30.5
2022-08-12T17:40:07.918Z,30.5
2022-08-12T17:42:35.504Z,30.5
2022-08-12T17:45:34.431Z,30.5
2022-08-12T17:48:38.579Z,30.5
2022-08-12T17:51:34.423Z,30.5
2022-08-12T17:54:34.427Z,30.5
2022-08-12T17:57:34.504Z,30.5
2022-08-12T18:00:37.425Z,30.5
2022-08-12T18:03:58.109Z,30.5
2022-08-12T18:06:34.443Z,30.5
2022-08-12T18:09:36.283Z,30.5
2022-08-12T18:12:34.989Z,30.5
2022-08-12T18:16:03.742Z,30.5
2022-08-12T18:18:34.441Z,30.5
2022-08-12T18:22:00.998Z,30.5
2022-08-12T18:24:34.449Z,30.5
2022-08-12T18:27:43.089Z,30.5
2022-08-12T18:30:34.446Z,30.5
2022-08-12T18:33:41.615Z,30.5
2022-08-12T18:36:34.477Z,30.5
2022-08-12T18:39:34.616Z,30.5
2022-08-12T18:42:34.469Z,31
2022-08-12T18:45:46.773Z,31
2022-08-12T18:48:34.469Z,31
2022-08-12T18:51:46.011Z,31
2022-08-12T18:54:34.481Z,31
2022-08-12T18:57:46.387Z,31
2022-08-12T19:00:34.492Z,31
2022-08-12T19:03:38.739Z,31.5
2022-08-12T19:06:34.469Z,31.5
2022-08-12T19:09:38.721Z,31.5
2022-08-12T19:12:34.463Z,31.5
2022-08-12T19:15:37.300Z,31.5
2022-08-12T19:18:37.233Z,32
2022-08-12T19:21:34.473Z,32
2022-08-12T19:24:34.468Z,32
2022-08-12T19:27:34.476Z,32.5
2022-08-12T19:30:34.484Z,33
2022-08-12T19:33:34.472Z,33
2022-08-12T19:36:34.470Z,33.5
2022-08-12T19:39:34.526Z,34.5
2022-08-12T19:42:35.495Z,34.5
2022-08-12T19:45:40.065Z,34.5
2022-08-12T19:48:34.615Z,34.5
2022-08-12T19:51:35.780Z,34.5
2022-08-12T19:54:34.480Z,35.5
2022-08-12T19:57:34.482Z,35.5
2022-08-12T20:00:35.196Z,35.5
2022-08-12T20:03:39.682Z,35.5
2022-08-12T20:06:34.625Z,35.5
2022-08-12T20:09:38.740Z,35.5
2022-08-12T20:12:34.796Z,35.5
2022-08-12T20:15:44.295Z,35.5
2022-08-12T20:18:44.025Z,35.5
2022-08-12T20:21:40.465Z,35.5
2022-08-12T20:24:34.472Z,36
2022-08-12T20:28:02.515Z,36
2022-08-12T20:30:38.011Z,36.5
2022-08-12T20:33:51.082Z,36
2022-08-12T20:36:41.798Z,36
2022-08-12T20:39:52.691Z,36
2022-08-12T20:42:34.693Z,36
2022-08-12T20:45:44.736Z,36
2022-08-12T20:48:34.672Z,36
2022-08-12T20:51:40.644Z,36
2022-08-12T20:54:34.682Z,36.5
2022-08-12T20:57:37.341Z,36.5
2022-08-12T21:00:34.691Z,36
2022-08-12T21:03:34.678Z,36
2022-08-12T21:06:34.675Z,36
2022-08-12T21:09:35.497Z,36
2022-08-12T21:12:34.702Z,36
2022-08-12T21:15:53.710Z,36
2022-08-12T21:18:34.684Z,36
2022-08-12T21:21:40.268Z,35.5
2022-08-12T21:24:34.692Z,35.5
2022-08-12T21:27:58.374Z,35.5
2022-08-12T21:30:37.568Z,35.5
2022-08-12T21:33:45.807Z,35.5
2022-08-12T21:36:35.432Z,35.5
2022-08-12T21:39:35.378Z,35.5
2022-08-12T21:42:34.698Z,35.5
2022-08-12T21:45:45.001Z,35.5
2022-08-12T21:48:34.721Z,35.5
2022-08-12T21:51:36.030Z,35.5
2022-08-12T21:54:34.699Z,35.5
2022-08-12T21:57:36.151Z,35.5
2022-08-12T22:00:37.005Z,35.5
2022-08-12T22:04:02.632Z,35.5
2022-08-12T22:06:43.022Z,36
2022-08-12T22:09:42.461Z,36
2022-08-12T22:12:34.716Z,36
2022-08-12T22:15:34.703Z,36
2022-08-12T22:18:34.700Z,36
2022-08-12T22:21:38.014Z,36
2022-08-12T22:24:34.708Z,36
2022-08-12T22:27:34.710Z,36
2022-08-12T22:30:34.704Z,36
2022-08-12T22:33:50.838Z,36
2022-08-12T22:36:34.694Z,36
2022-08-12T22:39:34.721Z,36
2022-08-12T22:42:34.712Z,36
2022-08-12T22:45:34.698Z,36
2022-08-12T22:48:34.704Z,36
2022-08-12T22:51:38.190Z,36
2022-08-12T22:54:35.349Z,36
2022-08-12T22:57:49.590Z,36.5
2022-08-12T23:00:34.720Z,37
2022-08-12T23:03:47.529Z,37
2022-08-12T23:06:34.711Z,37
2022-08-12T23:09:44.873Z,37
2022-08-12T23:12:34.713Z,37
2022-08-12T23:15:34.711Z,37
2022-08-12T23:18:34.708Z,37
2022-08-12T23:21:40.209Z,37
2022-08-12T23:24:34.982Z,37
2022-08-12T23:27:44.038Z,37
2022-08-12T23:30:34.802Z,37
2022-08-12T23:33:59.737Z,37
2022-08-12T23:36:39.517Z,37.5
2022-08-12T23:40:07.092Z,37.5
2022-08-12T23:42:34.723Z,37.5
2022-08-12T23:45:34.707Z,38
2022-08-12T23:48:34.708Z,38
2022-08-12T23:51:34.991Z,38
2022-08-12T23:54:39.278Z,38
2022-08-12T23:57:59.414Z,38
